sensor_id;sensor_type;location;lat;lon;timestamp;P1;durP1;ratioP1;P2;durP2;ratioP2
45944;SDS011;31655;48.972;10.686;2023-02-04T00:00:11;11.13;;;3.67;;
45944;SDS011;31655;48.972;10.686;2023-02-04T00:02:41;18.15;;;4.50;;
45944;SDS011;31655;48.972;10.686;2023-02-04T00:05:07;22.48;;;4.40;;
45944;SDS011;31655;48.972;10.686;2023-02-04T00:07:34;15.75;;;4.55;;
45944;SDS011;31655;48.972;10.686;2023-02-04T00:10:00;19.77;;;5.22;;
45944;SDS011;31655;48.972;10.686;2023-02-04T00:12:27;25.55;;;4.60;;
45944;SDS011;31655;48.972;10.686;2023-02-04T00:14:53;20.65;;;3.90;;
45944;SDS011;31655;48.972;10.686;2023-02-04T00:17:18;18.55;;;4.68;;
45944;SDS011;31655;48.972;10.686;2023-02-04T00:19:44;27.63;;;5.10;;
45944;SDS011;31655;48.972;10.686;2023-02-04T00:22:10;17.02;;;4.32;;
45944;SDS011;31655;48.972;10.686;2023-02-04T00:24:36;17.92;;;4.97;;
45944;SDS011;31655;48.972;10.686;2023-02-04T00:27:03;22.45;;;4.35;;
45944;SDS011;31655;48.972;10.686;2023-02-04T00:29:31;20.05;;;4.80;;
45944;SDS011;31655;48.972;10.686;2023-02-04T00:31:57;19.77;;;4.72;;
45944;SDS011;31655;48.972;10.686;2023-02-04T00:34:23;11.18;;;3.50;;
45944;SDS011;31655;48.972;10.686;2023-02-04T00:36:50;20.48;;;5.70;;
45944;SDS011;31655;48.972;10.686;2023-02-04T00:39:16;21.42;;;4.95;;
45944;SDS011;31655;48.972;10.686;2023-02-04T00:41:44;20.00;;;4.55;;
45944;SDS011;31655;48.972;10.686;2023-02-04T00:44:10;19.48;;;4.20;;
45944;SDS011;31655;48.972;10.686;2023-02-04T00:46:38;14.55;;;4.15;;
45944;SDS011;31655;48.972;10.686;2023-02-04T00:49:04;28.30;;;7.07;;
45944;SDS011;31655;48.972;10.686;2023-02-04T00:51:34;17.92;;;3.58;;
45944;SDS011;31655;48.972;10.686;2023-02-04T00:54:00;15.00;;;4.45;;
45944;SDS011;31655;48.972;10.686;2023-02-04T00:56:26;24.52;;;5.38;;
45944;SDS011;31655;48.972;10.686;2023-02-04T00:58:52;22.70;;;4.07;;
45944;SDS011;31655;48.972;10.686;2023-02-04T01:01:18;23.95;;;5.00;;
45944;SDS011;31655;48.972;10.686;2023-02-04T01:03:44;12.13;;;4.75;;
45944;SDS011;31655;48.972;10.686;2023-02-04T01:06:10;19.30;;;5.72;;
45944;SDS011;31655;48.972;10.686;2023-02-04T01:08:36;16.08;;;3.92;;
45944;SDS011;31655;48.972;10.686;2023-02-04T01:11:02;12.10;;;3.38;;
45944;SDS011;31655;48.972;10.686;2023-02-04T01:13:27;13.35;;;3.95;;
45944;SDS011;31655;48.972;10.686;2023-02-04T01:15:53;21.98;;;5.20;;
45944;SDS011;31655;48.972;10.686;2023-02-04T01:18:19;20.23;;;3.88;;
45944;SDS011;31655;48.972;10.686;2023-02-04T01:20:44;12.57;;;4.10;;
45944;SDS011;31655;48.972;10.686;2023-02-04T01:23:10;24.58;;;5.28;;
45944;SDS011;31655;48.972;10.686;2023-02-04T01:25:35;20.10;;;4.75;;
45944;SDS011;31655;48.972;10.686;2023-02-04T01:28:01;30.27;;;4.57;;
45944;SDS011;31655;48.972;10.686;2023-02-04T02:06:51;18.27;;;4.00;;
45944;SDS011;31655;48.972;10.686;2023-02-04T02:09:19;20.07;;;4.27;;
45944;SDS011;31655;48.972;10.686;2023-02-04T04:28:14;14.65;;;3.58;;
45944;SDS011;31655;48.972;10.686;2023-02-04T04:30:40;9.50;;;3.55;;
45944;SDS011;31655;48.972;10.686;2023-02-04T04:33:05;8.95;;;3.22;;
45944;SDS011;31655;48.972;10.686;2023-02-04T04:35:31;14.82;;;3.60;;
45944;SDS011;31655;48.972;10.686;2023-02-04T04:37:58;18.10;;;4.05;;
45944;SDS011;31655;48.972;10.686;2023-02-04T05:01:09;17.83;;;4.15;;
45944;SDS011;31655;48.972;10.686;2023-02-04T05:03:35;20.38;;;4.53;;
45944;SDS011;31655;48.972;10.686;2023-02-04T05:52:41;12.88;;;3.60;;
45944;SDS011;31655;48.972;10.686;2023-02-04T07:17:44;15.23;;;3.15;;
45944;SDS011;31655;48.972;10.686;2023-02-04T07:20:11;13.40;;;2.63;;
45944;SDS011;31655;48.972;10.686;2023-02-04T07:22:37;11.18;;;3.08;;
45944;SDS011;31655;48.972;10.686;2023-02-04T07:25:03;11.38;;;2.63;;
45944;SDS011;31655;48.972;10.686;2023-02-04T07:27:29;15.73;;;3.13;;
45944;SDS011;31655;48.972;10.686;2023-02-04T07:29:54;14.27;;;3.30;;
45944;SDS011;31655;48.972;10.686;2023-02-04T07:32:20;17.35;;;2.95;;
45944;SDS011;31655;48.972;10.686;2023-02-04T07:47:44;14.27;;;3.20;;
45944;SDS011;31655;48.972;10.686;2023-02-04T08:05:42;12.90;;;3.95;;
45944;SDS011;31655;48.972;10.686;2023-02-04T08:08:09;16.08;;;4.32;;
45944;SDS011;31655;48.972;10.686;2023-02-04T08:10:35;15.10;;;3.95;;
45944;SDS011;31655;48.972;10.686;2023-02-04T08:13:00;21.27;;;3.22;;
45944;SDS011;31655;48.972;10.686;2023-02-04T08:15:26;6.88;;;2.80;;
45944;SDS011;31655;48.972;10.686;2023-02-04T08:38:36;8.80;;;1.80;;
45944;SDS011;31655;48.972;10.686;2023-02-04T08:41:02;9.95;;;2.35;;
45944;SDS011;31655;48.972;10.686;2023-02-04T09:01:38;5.43;;;1.88;;
45944;SDS011;31655;48.972;10.686;2023-02-04T09:06:40;2.80;;;0.73;;
45944;SDS011;31655;48.972;10.686;2023-02-04T09:09:07;2.20;;;1.30;;
45944;SDS011;31655;48.972;10.686;2023-02-04T09:34:53;5.35;;;1.65;;
45944;SDS011;31655;48.972;10.686;2023-02-04T09:37:19;3.47;;;1.35;;
45944;SDS011;31655;48.972;10.686;2023-02-04T09:39:45;7.90;;;2.15;;
45944;SDS011;31655;48.972;10.686;2023-02-04T09:55:13;2.50;;;1.08;;
45944;SDS011;31655;48.972;10.686;2023-02-04T09:57:40;2.83;;;1.02;;
45944;SDS011;31655;48.972;10.686;2023-02-04T10:05:37;1.83;;;1.05;;
45944;SDS011;31655;48.972;10.686;2023-02-04T10:08:03;1.65;;;1.20;;
45944;SDS011;31655;48.972;10.686;2023-02-04T10:15:34;2.17;;;1.00;;
45944;SDS011;31655;48.972;10.686;2023-02-04T10:18:04;1.17;;;1.08;;
45944;SDS011;31655;48.972;10.686;2023-02-04T10:20:32;9.30;;;3.88;;
45944;SDS011;31655;48.972;10.686;2023-02-04T10:22:58;19.95;;;5.18;;
45944;SDS011;31655;48.972;10.686;2023-02-04T10:25:24;3.38;;;1.40;;
45944;SDS011;31655;48.972;10.686;2023-02-04T10:27:54;1.85;;;1.17;;
45944;SDS011;31655;48.972;10.686;2023-02-04T10:30:25;4.10;;;1.88;;
45944;SDS011;31655;48.972;10.686;2023-02-04T10:32:54;2.35;;;0.98;;
45944;SDS011;31655;48.972;10.686;2023-02-04T10:35:20;2.65;;;2.22;;
45944;SDS011;31655;48.972;10.686;2023-02-04T10:37:46;6.32;;;0.90;;
45944;SDS011;31655;48.972;10.686;2023-02-04T10:40:24;3.92;;;0.95;;
45944;SDS011;31655;48.972;10.686;2023-02-04T10:43:06;3.22;;;1.63;;
45944;SDS011;31655;48.972;10.686;2023-02-04T10:45:39;2.45;;;1.05;;
45944;SDS011;31655;48.972;10.686;2023-02-04T10:48:16;3.83;;;1.35;;
45944;SDS011;31655;48.972;10.686;2023-02-04T10:50:42;0.93;;;0.73;;
45944;SDS011;31655;48.972;10.686;2023-02-04T10:53:09;1.35;;;0.98;;
45944;SDS011;31655;48.972;10.686;2023-02-04T10:55:56;2.50;;;1.15;;
45944;SDS011;31655;48.972;10.686;2023-02-04T10:58:26;2.28;;;0.95;;
45944;SDS011;31655;48.972;10.686;2023-02-04T11:00:53;1.70;;;1.08;;
45944;SDS011;31655;48.972;10.686;2023-02-04T11:03:26;1.77;;;1.00;;
45944;SDS011;31655;48.972;10.686;2023-02-04T11:05:55;2.00;;;0.95;;
45944;SDS011;31655;48.972;10.686;2023-02-04T11:08:26;2.28;;;1.17;;
45944;SDS011;31655;48.972;10.686;2023-02-04T11:11:04;1.42;;;0.80;;
45944;SDS011;31655;48.972;10.686;2023-02-04T11:13:40;2.45;;;0.85;;
45944;SDS011;31655;48.972;10.686;2023-02-04T11:16:28;2.85;;;0.88;;
45944;SDS011;31655;48.972;10.686;2023-02-04T11:19:01;1.02;;;0.80;;
45944;SDS011;31655;48.972;10.686;2023-02-04T11:24:21;1.42;;;0.70;;
45944;SDS011;31655;48.972;10.686;2023-02-04T11:26:52;0.93;;;0.65;;
45944;SDS011;31655;48.972;10.686;2023-02-04T11:29:31;1.52;;;0.80;;
45944;SDS011;31655;48.972;10.686;2023-02-04T11:32:01;3.10;;;0.80;;
45944;SDS011;31655;48.972;10.686;2023-02-04T11:34:48;1.67;;;0.90;;
45944;SDS011;31655;48.972;10.686;2023-02-04T11:37:17;1.48;;;0.75;;
45944;SDS011;31655;48.972;10.686;2023-02-04T11:39:59;1.38;;;1.00;;
45944;SDS011;31655;48.972;10.686;2023-02-04T11:45:07;1.67;;;0.70;;
45944;SDS011;31655;48.972;10.686;2023-02-04T11:47:42;2.30;;;1.00;;
45944;SDS011;31655;48.972;10.686;2023-02-04T11:52:50;1.67;;;0.85;;
45944;SDS011;31655;48.972;10.686;2023-02-04T11:55:18;3.17;;;1.67;;
45944;SDS011;31655;48.972;10.686;2023-02-04T11:57:43;2.28;;;1.45;;
45944;SDS011;31655;48.972;10.686;2023-02-04T12:00:23;0.73;;;0.60;;
45944;SDS011;31655;48.972;10.686;2023-02-04T12:03:01;10.10;;;1.98;;
45944;SDS011;31655;48.972;10.686;2023-02-04T12:08:12;5.55;;;1.48;;
45944;SDS011;31655;48.972;10.686;2023-02-04T12:13:26;3.90;;;1.90;;
45944;SDS011;31655;48.972;10.686;2023-02-04T12:16:00;6.90;;;2.72;;
45944;SDS011;31655;48.972;10.686;2023-02-04T12:18:27;11.13;;;3.08;;
45944;SDS011;31655;48.972;10.686;2023-02-04T12:20:54;3.15;;;1.30;;
45944;SDS011;31655;48.972;10.686;2023-02-04T12:23:21;2.47;;;1.00;;
45944;SDS011;31655;48.972;10.686;2023-02-04T14:24:35;1.40;;;1.13;;
45944;SDS011;31655;48.972;10.686;2023-02-04T14:27:02;1.35;;;0.90;;
45944;SDS011;31655;48.972;10.686;2023-02-04T14:29:31;1.38;;;0.80;;
45944;SDS011;31655;48.972;10.686;2023-02-04T14:31:57;0.70;;;0.63;;
45944;SDS011;31655;48.972;10.686;2023-02-04T14:34:23;2.03;;;0.85;;
45944;SDS011;31655;48.972;10.686;2023-02-04T14:36:49;1.95;;;1.35;;
45944;SDS011;31655;48.972;10.686;2023-02-04T14:39:15;2.10;;;0.80;;
45944;SDS011;31655;48.972;10.686;2023-02-04T14:41:40;1.63;;;0.93;;
45944;SDS011;31655;48.972;10.686;2023-02-04T14:44:07;4.00;;;1.63;;
45944;SDS011;31655;48.972;10.686;2023-02-04T14:46:32;5.85;;;2.10;;
45944;SDS011;31655;48.972;10.686;2023-02-04T14:48:58;0.85;;;0.80;;
45944;SDS011;31655;48.972;10.686;2023-02-04T14:51:24;17.55;;;5.45;;
45944;SDS011;31655;48.972;10.686;2023-02-04T14:53:50;20.45;;;6.70;;
45944;SDS011;31655;48.972;10.686;2023-02-04T14:56:16;4.80;;;1.85;;
45944;SDS011;31655;48.972;10.686;2023-02-04T14:58:43;0.73;;;0.73;;
45944;SDS011;31655;48.972;10.686;2023-02-04T15:01:09;20.92;;;7.78;;
45944;SDS011;31655;48.972;10.686;2023-02-04T15:03:35;43.50;;;12.80;;
45944;SDS011;31655;48.972;10.686;2023-02-04T15:06:02;33.40;;;9.40;;
45944;SDS011;31655;48.972;10.686;2023-02-04T15:08:29;43.63;;;14.57;;
45944;SDS011;31655;48.972;10.686;2023-02-04T15:10:56;4.68;;;2.13;;
45944;SDS011;31655;48.972;10.686;2023-02-04T15:13:22;2.42;;;1.40;;
45944;SDS011;31655;48.972;10.686;2023-02-04T15:15:48;0.98;;;0.98;;
45944;SDS011;31655;48.972;10.686;2023-02-04T15:18:14;0.85;;;0.65;;
45944;SDS011;31655;48.972;10.686;2023-02-04T15:20:42;2.50;;;1.45;;
45944;SDS011;31655;48.972;10.686;2023-02-04T15:23:09;0.77;;;0.68;;
45944;SDS011;31655;48.972;10.686;2023-02-04T15:25:37;2.60;;;1.30;;
45944;SDS011;31655;48.972;10.686;2023-02-04T15:28:04;0.68;;;0.68;;
45944;SDS011;31655;48.972;10.686;2023-02-04T15:30:30;0.93;;;0.75;;
45944;SDS011;31655;48.972;10.686;2023-02-04T15:32:56;1.33;;;1.00;;
45944;SDS011;31655;48.972;10.686;2023-02-04T15:35:22;1.23;;;1.10;;
45944;SDS011;31655;48.972;10.686;2023-02-04T15:37:48;1.63;;;0.93;;
45944;SDS011;31655;48.972;10.686;2023-02-04T15:40:15;3.33;;;1.38;;
45944;SDS011;31655;48.972;10.686;2023-02-04T15:42:41;1.85;;;1.42;;
45944;SDS011;31655;48.972;10.686;2023-02-04T15:45:07;4.93;;;2.22;;
45944;SDS011;31655;48.972;10.686;2023-02-04T15:47:33;2.05;;;1.67;;
45944;SDS011;31655;48.972;10.686;2023-02-04T15:49:59;1.55;;;1.13;;
45944;SDS011;31655;48.972;10.686;2023-02-04T15:52:25;1.35;;;1.20;;
45944;SDS011;31655;48.972;10.686;2023-02-04T15:54:51;1.52;;;1.13;;
45944;SDS011;31655;48.972;10.686;2023-02-04T15:57:17;0.98;;;0.80;;
45944;SDS011;31655;48.972;10.686;2023-02-04T15:59:43;0.85;;;0.80;;
45944;SDS011;31655;48.972;10.686;2023-02-04T16:02:15;1.80;;;1.20;;
45944;SDS011;31655;48.972;10.686;2023-02-04T16:04:40;1.35;;;0.77;;
45944;SDS011;31655;48.972;10.686;2023-02-04T16:07:10;0.98;;;0.77;;
45944;SDS011;31655;48.972;10.686;2023-02-04T16:09:36;2.55;;;0.98;;
45944;SDS011;31655;48.972;10.686;2023-02-04T16:12:03;4.53;;;1.40;;
45944;SDS011;31655;48.972;10.686;2023-02-04T16:14:29;1.23;;;0.90;;
45944;SDS011;31655;48.972;10.686;2023-02-04T16:16:55;6.55;;;1.20;;
45944;SDS011;31655;48.972;10.686;2023-02-04T16:19:21;6.78;;;2.60;;
45944;SDS011;31655;48.972;10.686;2023-02-04T16:21:47;7.65;;;3.30;;
45944;SDS011;31655;48.972;10.686;2023-02-04T16:24:13;3.05;;;2.22;;
45944;SDS011;31655;48.972;10.686;2023-02-04T16:26:42;1.77;;;1.05;;
45944;SDS011;31655;48.972;10.686;2023-02-04T16:29:08;3.47;;;2.40;;
45944;SDS011;31655;48.972;10.686;2023-02-04T16:31:34;1.30;;;1.20;;
45944;SDS011;31655;48.972;10.686;2023-02-04T16:34:00;2.33;;;2.13;;
45944;SDS011;31655;48.972;10.686;2023-02-04T16:36:26;2.58;;;1.70;;
45944;SDS011;31655;48.972;10.686;2023-02-04T16:38:52;3.55;;;1.83;;
45944;SDS011;31655;48.972;10.686;2023-02-04T16:41:18;3.85;;;1.27;;
45944;SDS011;31655;48.972;10.686;2023-02-04T16:43:44;2.15;;;1.35;;
45944;SDS011;31655;48.972;10.686;2023-02-04T16:46:10;1.45;;;1.05;;
45944;SDS011;31655;48.972;10.686;2023-02-04T16:48:38;2.08;;;1.60;;
45944;SDS011;31655;48.972;10.686;2023-02-04T16:51:04;3.38;;;0.93;;
45944;SDS011;31655;48.972;10.686;2023-02-04T16:53:30;1.15;;;0.80;;
45944;SDS011;31655;48.972;10.686;2023-02-04T20:47:19;5.70;;;3.83;;
45944;SDS011;31655;48.972;10.686;2023-02-04T20:54:56;67.13;;;26.75;;
45944;SDS011;31655;48.972;10.686;2023-02-04T20:57:26;13.32;;;6.13;;
45944;SDS011;31655;48.972;10.686;2023-02-04T21:00:40;5.82;;;3.28;;
45944;SDS011;31655;48.972;10.686;2023-02-04T23:19:43;8.25;;;5.25;;
45944;SDS011;31655;48.972;10.686;2023-02-04T23:24:46;6.63;;;4.35;;
45944;SDS011;31655;48.972;10.686;2023-02-04T23:27:13;8.98;;;4.75;;
45944;SDS011;31655;48.972;10.686;2023-02-04T23:29:40;12.93;;;6.40;;
45944;SDS011;31655;48.972;10.686;2023-02-04T23:32:07;10.63;;;5.45;;
45944;SDS011;31655;48.972;10.686;2023-02-04T23:34:33;15.68;;;5.20;;
45944;SDS011;31655;48.972;10.686;2023-02-04T23:36:59;9.35;;;5.38;;
45944;SDS011;31655;48.972;10.686;2023-02-04T23:39:25;6.13;;;4.22;;
45944;SDS011;31655;48.972;10.686;2023-02-04T23:41:51;9.18;;;4.32;;
45944;SDS011;31655;48.972;10.686;2023-02-04T23:44:19;5.72;;;3.83;;
45944;SDS011;31655;48.972;10.686;2023-02-04T23:46:45;9.52;;;4.82;;
45944;SDS011;31655;48.972;10.686;2023-02-04T23:49:11;8.38;;;4.85;;
45944;SDS011;31655;48.972;10.686;2023-02-04T23:51:37;7.93;;;4.50;;
45944;SDS011;31655;48.972;10.686;2023-02-04T23:54:03;7.55;;;4.53;;
45944;SDS011;31655;48.972;10.686;2023-02-04T23:56:31;6.28;;;4.65;;
45944;SDS011;31655;48.972;10.686;2023-02-04T23:58:57;8.02;;;4.80;;
